Time;durP1;ratioP1;P1;durP2;ratioP2;P2;SDS_P1;SDS_P2;PMS_P1;PMS_P2;Temp;Humidity;BMP_temperature;BMP_pressure;BME280_temperature;BME280_humidity;BME280_pressure;Samples;Min_cycle;Max_cycle;Signal;HPM_P1;HPM_P2
2021/04/01 00:01:10;;;;;;;96.20;71.90;;;;;;;9.17;74.22;99192.39;113581;1200;64480;-79
2021/04/01 00:03:46;;;;;;;103.43;73.93;;;;;;;9.13;74.49;99192.65;113616;1200;64471;-79
2021/04/01 00:06:37;;;;;;;88.70;65.50;;;;;;;9.07;74.49;99193.86;113583;1200;64470;-80
2021/04/01 00:09:07;;;;;;;101.20;70.90;;;;;;;9.03;74.55;99184.38;113688;1200;64458;-79
2021/04/01 00:11:35;;;;;;;111.43;81.87;;;;;;;9.11;75.46;99186.56;113623;1200;64253;-80
2021/04/01 00:14:04;;;;;;;87.25;66.60;;;;;;;9.14;75.05;99186.41;113606;1200;64375;-82
2021/04/01 00:16:40;;;;;;;92.10;67.57;;;;;;;9.12;75.23;99180.31;113600;1200;64478;-81
2021/04/01 00:19:09;;;;;;;109.05;78.25;;;;;;;9.07;75.41;99183.23;113640;1200;64385;-81
2021/04/01 00:21:40;;;;;;;107.83;75.23;;;;;;;9.00;75.38;99177.42;113566;1200;64366;-78
2021/04/01 00:24:09;;;;;;;105.13;75.03;;;;;;;8.96;75.39;99175.03;113711;1200;64361;-81
2021/04/01 00:26:40;;;;;;;96.97;70.60;;;;;;;8.92;75.58;99170.81;113662;1198;64369;-79
2021/04/01 00:29:08;;;;;;;100.60;69.20;;;;;;;8.89;75.38;99171.84;113598;1200;64464;-80
2021/04/01 00:31:37;;;;;;;96.53;67.57;;;;;;;8.88;75.67;99167.48;113577;1199;64388;-80
2021/04/01 00:34:05;;;;;;;94.55;64.85;;;;;;;8.87;75.70;99168.41;113577;1199;64496;-80
2021/04/01 00:36:32;;;;;;;99.00;70.00;;;;;;;8.87;75.76;99157.78;113657;1200;64368;-80
2021/04/01 00:39:00;;;;;;;91.40;66.70;;;;;;;8.88;75.91;99156.86;113609;1199;64388;-81
2021/04/01 00:41:29;;;;;;;88.15;67.85;;;;;;;8.87;75.59;99157.78;113661;1200;64499;-79
2021/04/01 00:44:07;;;;;;;95.10;69.10;;;;;;;8.79;75.45;99157.38;113615;1199;64330;-80
2021/04/01 00:46:37;;;;;;;100.80;74.47;;;;;;;8.73;75.53;99153.27;113671;1200;64458;-79
2021/04/01 00:49:06;;;;;;;87.57;65.50;;;;;;;8.66;75.35;99149.27;113647;1200;64342;-80
2021/04/01 00:51:36;;;;;;;87.87;62.93;;;;;;;8.61;75.46;99153.09;113627;1199;64470;-81
2021/04/01 00:54:04;;;;;;;81.93;61.37;;;;;;;8.54;75.71;99147.29;113680;1199;64490;-80
2021/04/01 00:56:36;;;;;;;82.60;62.73;;;;;;;8.49;75.62;99142.23;113650;1200;64356;-82
2021/04/01 00:59:08;;;;;;;88.97;65.90;;;;;;;8.48;75.63;99145.84;113612;1200;64486;-80
2021/04/01 01:04:13;;;;;;;98.00;71.80;;;;;;;8.39;75.82;99140.14;113669;1200;64383;-83
2021/04/01 01:06:46;;;;;;;109.40;77.80;;;;;;;8.34;76.01;99135.08;113660;1199;64496;-80
2021/04/01 01:09:13;;;;;;;100.55;70.55;;;;;;;8.31;76.00;99133.45;113771;1200;64340;-82
2021/04/01 01:11:42;;;;;;;96.33;68.67;;;;;;;8.28;76.06;99133.63;113808;1199;64414;-82
2021/04/01 01:14:11;;;;;;;96.10;68.15;;;;;;;8.25;76.10;99133.80;113756;1199;64467;-80
2021/04/01 01:16:39;;;;;;;;;;;;;;;8.21;75.95;99126.08;113692;1206;64369;-81
2021/04/01 01:19:07;;;;;;;103.80;71.27;;;;;;;8.21;76.47;99120.77;113676;1200;64550;-82
2021/04/01 01:21:34;;;;;;;96.33;70.27;;;;;;;8.26;76.20;99124.03;113699;1199;64465;-81
2021/04/01 01:24:05;;;;;;;92.33;68.13;;;;;;;8.21;76.20;99118.97;113655;1199;64334;-80
2021/04/01 01:26:39;;;;;;;95.73;68.73;;;;;;;8.17;76.21;99113.94;113676;1200;64467;-80
2021/04/01 01:29:08;;;;;;;92.30;69.10;;;;;;;8.19;76.51;99110.25;113620;1200;64419;-81
2021/04/01 01:31:42;;;;;;;91.87;66.90;;;;;;;8.19;76.29;99110.25;113600;1200;64532;-81
2021/04/01 01:34:11;;;;;;;90.70;66.93;;;;;;;8.11;76.21;99105.36;113652;1199;64462;-79
2021/04/01 01:36:38;;;;;;;86.57;61.67;;;;;;;8.06;76.14;99103.91;113666;1200;64365;-81
2021/04/01 01:39:06;;;;;;;80.77;59.53;;;;;;;8.02;76.03;99100.55;113582;1200;64387;-80
2021/04/01 01:41:34;;;;;;;80.03;59.93;;;;;;;7.98;75.99;99096.36;113628;1199;64420;-80
2021/04/01 01:44:02;;;;;;;74.03;57.03;;;;;;;7.94;76.03;99093.95;113602;1200;64272;-80
2021/04/01 01:46:35;;;;;;;81.33;62.77;;;;;;;7.88;76.21;99087.19;113544;1199;64407;-81
2021/04/01 01:49:22;;;;;;;91.40;67.00;;;;;;;7.83;76.27;99087.43;113759;1200;64474;-79
2021/04/01 01:51:50;;;;;;;101.77;72.30;;;;;;;7.81;76.35;99086.65;113669;1200;64327;-80
2021/04/01 01:54:18;;;;;;;101.37;73.63;;;;;;;7.75;76.44;99084.34;113351;1200;64542;-80
2021/04/01 01:56:45;;;;;;;99.70;73.80;;;;;;;7.70;76.83;99075.77;113639;1199;64500;-80
2021/04/01 01:59:13;;;;;;;103.65;78.00;;;;;;;7.66;77.43;99074.20;113716;1199;64413;-81
2021/04/01 02:01:41;;;;;;;100.45;74.05;;;;;;;7.68;77.39;99064.38;113644;1200;64420;-81
2021/04/01 02:04:08;;;;;;;95.10;72.70;;;;;;;7.78;77.71;99070.05;113776;1199;64471;-80
2021/04/01 02:06:35;;;;;;;97.83;72.73;;;;;;;7.83;77.39;99071.51;113599;1200;64400;-79
2021/04/01 02:09:05;;;;;;;98.30;79.20;;;;;;;7.75;77.70;99070.22;113394;1200;64426;-80
2021/04/01 02:11:34;;;;;;;110.07;81.83;;;;;;;7.70;77.87;99067.81;113566;1200;64423;-80
2021/04/01 02:14:02;;;;;;;107.65;78.75;;;;;;;7.77;77.97;99061.24;113613;1199;64375;-82
2021/04/01 02:16:30;;;;;;;97.60;72.20;;;;;;;7.77;77.78;99061.24;113632;1200;64387;-85
2021/04/01 02:18:58;;;;;;;99.07;71.07;;;;;;;7.79;77.69;99061.14;113577;1199;64426;-81
2021/04/01 02:21:25;;;;;;;92.30;69.95;;;;;;;7.78;77.63;99065.59;113579;1199;64468;-81
2021/04/01 02:23:53;;;;;;;97.20;72.13;;;;;;;7.81;77.94;99053.96;113649;1199;64410;-81
2021/04/01 02:26:22;;;;;;;84.65;65.15;;;;;;;7.82;77.47;99067.16;113608;1199;64471;-81
2021/04/01 02:28:49;;;;;;;96.37;76.77;;;;;;;7.81;77.69;99059.27;113601;1199;64340;-80
2021/04/01 02:31:20;;;;;;;97.70;72.45;;;;;;;7.79;77.58;99061.99;113543;1199;64510;-80
2021/04/01 02:33:49;;;;;;;91.13;70.60;;;;;;;7.73;77.38;99048.22;113639;1200;64442;-81
2021/04/01 02:36:16;;;;;;;97.75;72.90;;;;;;;7.65;77.38;99056.59;113672;1200;64314;-79
2021/04/01 02:38:44;;;;;;;89.93;70.93;;;;;;;7.61;77.35;99052.38;113616;1200;64484;-80
2021/04/01 02:41:13;;;;;;;85.20;67.27;;;;;;;7.55;77.36;99050.06;113630;1199;64365;-80
2021/04/01 02:43:40;;;;;;;87.93;64.60;;;;;;;7.48;76.99;99046.90;113620;1198;64500;-79
2021/04/01 02:46:09;;;;;;;88.10;64.33;;;;;;;7.38;76.99;99043.02;113646;1199;64372;-80
2021/04/01 02:48:36;;;;;;;84.67;65.77;;;;;;;7.30;77.21;99040.77;113648;1200;64315;-80
2021/04/01 02:51:05;;;;;;;84.40;65.85;;;;;;;7.25;77.20;99033.05;113653;1200;64346;-80
2021/04/01 02:53:36;;;;;;;90.43;69.37;;;;;;;7.21;77.48;99042.13;113620;1199;64365;-81
2021/04/01 02:56:03;;;;;;;90.63;68.37;;;;;;;7.17;77.38;99031.76;113554;1199;64465;-81
2021/04/01 02:58:31;;;;;;;95.75;72.45;;;;;;;7.11;77.33;99034.70;113692;1199;64510;-80
2021/04/01 03:00:59;;;;;;;90.50;69.20;;;;;;;7.06;77.65;99034.97;113637;1200;64407;-81
2021/04/01 03:03:41;;;;;;;85.10;64.07;;;;;;;7.03;77.68;99032.48;113648;1199;64416;-80
2021/04/01 03:06:09;;;;;;;88.77;68.37;;;;;;;7.01;77.72;99037.00;113628;1199;64471;-81
2021/04/01 03:08:37;;;;;;;91.85;69.70;;;;;;;7.00;78.03;99032.62;113617;1200;64503;-80
2021/04/01 03:11:05;;;;;;;95.57;68.00;;;;;;;7.03;78.20;99025.38;113613;1199;64516;-80
2021/04/01 03:13:34;;;;;;;90.97;68.53;;;;;;;7.06;77.94;99023.48;113668;1200;64854;-79
2021/04/01 03:16:02;;;;;;;93.90;72.40;;;;;;;7.04;77.77;99024.44;113573;1200;64465;-79
2021/04/01 03:18:31;;;;;;;106.00;78.45;;;;;;;7.03;77.93;99032.48;113635;1198;64394;-80
2021/04/01 03:20:59;;;;;;;102.65;73.45;;;;;;;6.97;77.82;99023.03;113588;1200;64478;-79
2021/04/01 03:23:29;;;;;;;101.27;76.67;;;;;;;6.91;77.79;99025.16;113598;1199;64423;-80
2021/04/01 03:25:59;;;;;;;94.50;72.30;;;;;;;6.85;77.73;99022.84;113589;1200;64486;-79
2021/04/01 03:28:29;;;;;;;94.73;70.30;;;;;;;6.78;77.65;99023.13;113657;1199;64401;-80
2021/04/01 03:31:03;;;;;;;93.90;68.85;;;;;;;6.72;77.81;99020.80;113628;1200;64464;-80
2021/04/01 03:33:32;;;;;;;95.43;71.57;;;;;;;6.70;77.69;99020.02;113682;1200;64372;-82
2021/04/01 03:36:00;;;;;;;99.10;74.95;;;;;;;6.67;77.79;99014.88;113634;1199;64462;-82
2021/04/01 03:38:28;;;;;;;105.23;79.03;;;;;;;6.67;78.09;99009.58;113635;1200;64445;-80
2021/04/01 03:40:55;;;;;;;106.80;78.83;;;;;;;6.63;78.04;99013.30;113651;1200;64420;-80
2021/04/01 03:43:26;;;;;;;104.17;81.27;;;;;;;6.59;78.15;99009.12;113667;1200;64359;-79
2021/04/01 03:45:55;;;;;;;103.75;85.50;;;;;;;6.57;78.26;99003.88;113576;1199;64503;-80
2021/04/01 03:48:24;;;;;;;100.17;77.87;;;;;;;6.61;78.66;99004.61;113696;1199;64506;-81
2021/04/01 03:50:52;;;;;;;102.50;77.77;;;;;;;6.66;78.45;99001.70;113750;1200;64369;-81
2021/04/01 03:53:20;;;;;;;96.47;76.33;;;;;;;6.68;78.66;99000.69;113679;1200;64420;-82
2021/04/01 03:55:47;;;;;;;93.43;74.00;;;;;;;6.73;78.61;98992.52;113709;1199;64473;-82
2021/04/01 04:09:28;;;;;;;118.90;89.00;;;;;;;6.55;78.31;99004.89;113605;1200;64388;-81
2021/04/01 04:12:07;;;;;;;120.33;93.23;;;;;;;6.47;78.55;98997.34;113557;1200;64500;-80
2021/04/01 04:14:42;;;;;;;113.00;85.87;;;;;;;6.41;78.68;98996.80;113617;1200;64470;-80
2021/04/01 04:17:11;;;;;;;110.23;85.23;;;;;;;6.38;78.91;98995.16;113643;1199;64460;-80
2021/04/01 04:19:39;;;;;;;105.50;82.15;;;;;;;6.36;78.77;98991.73;113725;1199;64477;-80
2021/04/01 04:22:08;;;;;;;112.57;89.93;;;;;;;6.37;79.06;98986.38;113663;1199;64465;-80
2021/04/01 04:24:37;;;;;;;105.80;81.30;;;;;;;6.39;78.81;98988.92;113617;1200;64388;-80
2021/04/01 04:30:03;;;;;;;95.90;77.30;;;;;;;6.34;78.60;98986.50;113669;1199;64384;-79
2021/04/01 04:32:32;;;;;;;101.85;80.15;;;;;;;6.34;78.42;98977.70;113549;1200;64853;-80
2021/04/01 04:35:01;;;;;;;114.65;89.60;;;;;;;6.33;79.12;98979.50;113575;1200;64381;-80
2021/04/01 04:37:29;;;;;;;118.80;91.13;;;;;;;6.35;78.87;98984.73;113580;1200;64423;-80
2021/04/01 04:39:57;;;;;;;105.17;84.33;;;;;;;6.42;78.94;98979.97;113562;1199;64474;-80
2021/04/01 04:42:25;;;;;;;102.77;81.70;;;;;;;6.56;78.86;98978.36;113642;1200;64465;-79
2021/04/01 04:44:53;;;;;;;104.13;79.43;;;;;;;6.67;78.55;98984.90;113627;1200;64732;-80
2021/04/01 04:47:21;;;;;;;102.30;80.60;;;;;;;6.68;78.62;98976.86;113602;1200;64462;-80
2021/04/01 04:49:49;;;;;;;111.33;93.47;;;;;;;6.85;79.01;98976.00;113634;1199;64315;-80
2021/04/01 04:52:19;;;;;;;118.40;92.95;;;;;;;7.16;78.65;98964.65;113629;1200;64426;-80
2021/04/01 04:54:47;;;;;;;126.77;99.97;;;;;;;7.44;78.36;98963.99;113627;1200;64477;-81
2021/04/01 05:05:40;;;;;;;104.73;86.77;;;;;;;8.68;76.75;98965.84;113667;1199;64302;-80
2021/04/01 05:08:08;;;;;;;117.47;88.97;;;;;;;8.92;76.12;98964.35;113680;1199;64497;-81
2021/04/01 05:10:36;;;;;;;121.30;89.45;;;;;;;9.19;75.73;98958.33;113740;1199;64407;-81
2021/04/01 05:15:40;;;;;;;107.27;87.30;;;;;;;9.56;74.83;98951.55;113667;1200;64362;-80
2021/04/01 05:18:23;;;;;;;109.85;84.25;;;;;;;9.78;74.37;98950.17;113698;1200;64387;-80
2021/04/01 05:20:52;;;;;;;97.95;80.30;;;;;;;10.02;73.99;98945.06;113670;1199;64467;-81
2021/04/01 05:23:43;;;;;;;106.57;84.23;;;;;;;10.23;73.58;98956.11;113632;1200;64400;-80
2021/04/01 05:28:51;;;;;;;100.65;79.50;;;;;;;10.65;72.84;98946.23;113601;1199;64382;-80
2021/04/01 05:31:38;;;;;;;104.37;83.33;;;;;;;10.84;72.84;98940.48;113561;1200;64474;-79
2021/04/01 05:34:06;;;;;;;102.73;83.60;;;;;;;11.04;72.46;98944.45;113540;1200;64404;-80
2021/04/01 05:36:39;;;;;;;101.73;84.60;;;;;;;11.30;72.19;98935.47;113598;1199;64458;-80
2021/04/01 05:39:11;;;;;;;95.45;81.85;;;;;;;11.52;71.85;98939.27;113556;1199;64461;-81
2021/04/01 05:41:49;;;;;;;97.30;82.83;;;;;;;11.72;71.70;98946.70;113570;1200;64369;-80
2021/04/01 06:05:52;;;;;;;99.40;86.25;;;;;;;13.88;69.64;98923.06;113604;1200;64384;-80
2021/04/01 06:08:25;;;;;;;95.90;85.73;;;;;;;14.07;69.53;98922.39;113572;1200;64381;-81
2021/04/01 06:10:57;;;;;;;85.33;76.07;;;;;;;14.20;68.99;98921.24;113477;1199;64416;-79
2021/04/01 06:13:29;;;;;;;90.65;76.75;;;;;;;14.27;68.67;98918.92;113574;1200;64404;-80
2021/04/01 06:16:04;;;;;;;86.83;74.73;;;;;;;14.37;68.69;98919.82;113677;1199;64381;-80
2021/04/01 06:18:34;;;;;;;78.90;65.85;;;;;;;14.48;68.29;98916.23;113572;1200;64455;-80
2021/04/01 06:21:12;;;;;;;76.70;65.80;;;;;;;14.63;67.99;98914.97;113555;1200;64394;-82
2021/04/01 06:23:42;;;;;;;75.57;63.07;;;;;;;14.80;68.07;98910.03;113622;1200;64442;-81
2021/04/01 06:26:19;;;;;;;68.53;57.87;;;;;;;14.99;67.65;98922.70;113660;1199;64407;-80
2021/04/01 06:28:59;;;;;;;65.30;58.05;;;;;;;15.18;67.72;98917.42;113651;1199;64417;-81
2021/04/01 06:31:30;;;;;;;64.23;54.47;;;;;;;15.24;67.45;98910.67;113711;1200;64398;-81
2021/04/01 06:34:00;;;;;;;62.40;49.80;;;;;;;15.15;67.17;98917.70;113669;1200;64570;-82
2021/04/01 06:36:33;;;;;;;60.87;49.50;;;;;;;15.06;67.72;98911.30;113726;1199;64323;-83
2021/04/01 06:39:02;;;;;;;55.25;46.35;;;;;;;14.99;67.49;98896.71;113700;1200;64413;-81
2021/04/01 06:41:31;;;;;;;64.93;49.93;;;;;;;14.91;67.47;98901.89;113534;1200;64432;-81
2021/04/01 06:44:02;;;;;;;58.33;49.83;;;;;;;14.80;67.47;98904.66;113718;1200;64580;-80
2021/04/01 06:46:42;;;;;;;58.87;47.67;;;;;;;14.71;67.80;98899.08;113732;1199;64612;-80
2021/04/01 06:52:23;;;;;;;62.50;51.80;;;;;;;14.66;68.07;98898.61;113617;1200;64330;-81
2021/04/01 06:58:13;;;;;;;60.90;49.47;;;;;;;14.70;68.22;98893.86;113467;1200;64324;-80
2021/04/01 07:03:22;;;;;;;48.50;38.20;;;;;;;14.78;67.93;98886.00;113947;1199;64454;-79
2021/04/01 07:06:25;;;;;;;50.43;38.70;;;;;;;14.79;68.01;98885.00;113856;1199;64378;-79
2021/04/01 07:09:00;;;;;;;43.60;32.63;;;;;;;14.84;67.47;98879.25;113630;1199;64420;-79
2021/04/01 07:11:35;;;;;;;38.87;30.77;;;;;;;14.85;67.40;98881.81;113676;1200;64454;-80
2021/04/01 07:14:23;;;;;;;36.47;30.03;;;;;;;14.90;67.71;98876.90;113557;1200;64863;-80
2021/04/01 07:19:29;;;;;;;;;;;;;;;15.17;67.86;98875.47;113662;1200;64320;-80
2021/04/01 07:31:14;;;;;;;23.90;19.33;;;;;;;15.77;67.07;98862.09;113607;1199;64340;-79
2021/04/01 07:45:51;;;;;;;20.50;13.40;;;;;;;16.55;65.52;98846.81;113686;1199;64311;-80
2021/04/01 07:48:12;;;;;;;15.63;10.33;;;;;;;16.74;64.54;98837.00;113591;1200;64426;-79
2021/04/01 07:50:42;;;;;;;11.03;9.40;;;;;;;16.88;63.90;98832.05;113692;1200;64394;-80
2021/04/01 07:53:13;;;;;;;12.63;8.50;;;;;;;17.04;63.42;98823.34;113659;1200;64388;-79
2021/04/01 07:58:53;;;;;;;9.30;7.45;;;;;;;17.39;61.94;98810.97;113574;1199;64467;-80
2021/04/01 08:01:51;;;;;;;10.05;7.90;;;;;;;17.53;60.81;98813.14;113631;1200;64484;-79
2021/04/01 08:04:22;;;;;;;9.80;7.10;;;;;;;17.68;59.38;98810.78;113547;1200;64423;-80
2021/04/01 08:07:08;;;;;;;9.30;7.40;;;;;;;17.82;59.31;98814.83;113600;1200;64358;-80
2021/04/01 08:09:42;;;;;;;11.43;7.40;;;;;;;17.97;60.21;98809.76;113637;1200;64372;-79
2021/04/01 08:12:29;;;;;;;18.65;7.75;;;;;;;18.05;59.98;98812.53;113662;1199;64465;-80
2021/04/01 08:15:10;;;;;;;11.67;7.20;;;;;;;18.15;59.30;98809.75;113518;1199;64384;-80
2021/04/01 08:20:33;;;;;;;9.55;6.70;;;;;;;18.36;59.26;98804.87;113414;1198;64443;-80
2021/04/01 08:25:37;;;;;;;9.85;7.50;;;;;;;18.55;58.05;98806.52;113722;1200;64542;-78
2021/04/01 08:31:12;;;;;;;8.33;6.70;;;;;;;18.70;57.54;98797.86;113740;1199;64388;-80
2021/04/01 08:36:48;;;;;;;9.37;6.50;;;;;;;18.85;57.14;98798.96;113696;1200;64448;-79
2021/04/01 08:39:17;;;;;;;10.37;7.17;;;;;;;18.95;57.04;98786.20;113664;1200;64388;-80
2021/04/01 08:42:07;;;;;;;9.37;8.20;;;;;;;19.05;56.98;98788.78;113667;1200;64394;-80
2021/04/01 08:44:49;;;;;;;11.27;8.13;;;;;;;19.12;56.23;98792.53;113592;1200;64414;-80
2021/04/01 08:47:42;;;;;;;12.25;7.20;;;;;;;19.18;56.34;98786.47;113615;1199;64458;-82
2021/04/01 08:50:29;;;;;;;10.63;8.07;;;;;;;19.28;56.05;98781.78;113502;1199;64372;-80
2021/04/01 08:53:24;;;;;;;11.80;8.00;;;;;;;19.37;55.82;98781.81;113577;1200;64519;-79
2021/04/01 08:56:23;;;;;;;11.43;8.17;;;;;;;19.46;55.78;98778.14;113674;1200;64423;-80
2021/04/01 08:59:41;;;;;;;11.70;8.45;;;;;;;19.57;54.66;98774.28;113663;1199;64442;-79
2021/04/01 09:02:13;;;;;;;11.83;8.20;;;;;;;19.67;54.01;98770.45;113547;1200;64327;-79
2021/04/01 09:05:11;;;;;;;12.50;8.80;;;;;;;19.74;53.74;98771.45;113588;1199;64429;-79
2021/04/01 09:07:44;;;;;;;13.17;8.33;;;;;;;19.82;53.17;98761.66;113636;1200;64394;-80
2021/04/01 09:10:19;;;;;;;12.70;8.80;;;;;;;19.90;53.13;98762.50;113352;1199;64320;-80
2021/04/01 09:12:54;;;;;;;13.87;8.87;;;;;;;19.96;52.43;98758.31;113671;1199;64480;-79
2021/04/01 09:17:54;;;;;;;11.20;8.17;;;;;;;20.17;52.93;98752.39;113567;1199;64442;-80
2021/04/01 09:20:26;;;;;;;12.10;8.50;;;;;;;20.29;52.61;98755.58;113607;1199;64465;-81
2021/04/01 09:23:09;;;;;;;13.47;8.90;;;;;;;20.39;51.71;98750.84;113611;1200;64323;-80
2021/04/01 09:25:40;;;;;;;12.70;9.45;;;;;;;20.60;51.04;98745.75;113692;1199;64423;-79
2021/04/01 09:28:09;;;;;;;17.87;8.90;;;;;;;20.67;48.74;98742.34;113647;1200;64366;-81
2021/04/01 09:30:37;;;;;;;23.23;9.87;;;;;;;20.74;49.89;98743.34;113701;1200;64464;-83
2021/04/01 09:33:10;;;;;;;13.70;8.47;;;;;;;20.89;50.07;98736.19;113746;1199;64851;-77
2021/04/01 09:35:38;;;;;;;14.50;9.43;;;;;;;20.99;47.73;98728.70;113700;1199;64371;-80
2021/04/01 09:38:11;;;;;;;12.10;9.45;;;;;;;21.03;48.44;98724.59;113714;1200;64390;-81
2021/04/01 09:40:41;;;;;;;12.93;9.13;;;;;;;21.13;48.78;98727.11;113643;1199;64318;-80
2021/04/01 09:43:35;;;;;;;17.50;10.63;;;;;;;21.30;48.44;98721.59;113606;1199;64445;-79
2021/04/01 09:46:11;;;;;;;15.67;10.63;;;;;;;21.45;46.00;98720.69;113631;1200;64397;-85
2021/04/01 09:48:42;;;;;;;17.87;10.70;;;;;;;21.54;45.91;98724.20;113677;1199;64426;-83
2021/04/01 09:51:19;;;;;;;22.37;12.30;;;;;;;21.62;45.12;98717.89;113780;1197;64314;-85
2021/04/01 09:54:16;;;;;;;15.75;11.55;;;;;;;21.71;45.58;98724.92;113795;1199;64404;-85
2021/04/01 09:56:55;;;;;;;28.87;12.40;;;;;;;21.85;44.73;98716.02;113695;1199;66143;-80
2021/04/01 09:59:50;;;;;;;18.20;12.10;;;;;;;22.01;44.70;98714.17;113663;1199;64477;-81
2021/04/01 10:02:35;;;;;;;22.60;12.30;;;;;;;22.12;43.92;98708.33;113584;1200;64416;-81
2021/04/01 10:05:06;;;;;;;19.50;11.87;;;;;;;22.30;43.98;98700.72;113659;1200;64363;-82
2021/04/01 10:07:37;;;;;;;20.03;11.90;;;;;;;22.43;42.15;98702.77;113678;1200;64391;-83
2021/04/01 10:10:06;;;;;;;26.50;13.60;;;;;;;22.53;42.90;98697.91;113651;1199;64496;-81
2021/04/01 10:12:41;;;;;;;30.80;16.35;;;;;;;22.70;42.34;98697.75;113680;1199;64455;-80
2021/04/01 10:15:10;;;;;;;16.80;12.37;;;;;;;22.88;40.44;98692.77;113660;1199;64474;-81
2021/04/01 10:17:40;;;;;;;26.13;12.83;;;;;;;23.06;41.19;98686.94;113623;1199;64471;-82
2021/04/01 10:20:09;;;;;;;19.75;12.80;;;;;;;23.27;41.69;98677.98;113553;1200;64458;-83
2021/04/01 10:22:38;;;;;;;19.15;12.65;;;;;;;23.42;40.87;98680.67;113599;1199;64468;-81
2021/04/01 10:25:21;;;;;;;20.30;12.40;;;;;;;23.41;38.35;98671.67;113718;1199;64330;-81
2021/04/01 10:30:56;;;;;;;21.15;14.20;;;;;;;23.18;39.10;98663.67;113336;1199;64513;-80
2021/04/01 10:33:39;;;;;;;19.30;12.75;;;;;;;23.28;39.86;98660.66;113551;1199;64471;-81
2021/04/01 10:36:09;;;;;;;15.73;11.57;;;;;;;23.36;38.09;98663.25;113599;1199;64388;-82
2021/04/01 10:38:41;;;;;;;19.00;12.57;;;;;;;23.26;38.98;98665.44;113705;1199;64391;-81
2021/04/01 10:41:18;;;;;;;27.73;13.57;;;;;;;23.20;39.43;98656.18;113678;1199;64532;-81
2021/04/01 10:43:53;;;;;;;21.15;12.75;;;;;;;23.29;39.12;98656.05;113644;1199;64333;-81
2021/04/01 10:46:20;;;;;;;18.00;11.75;;;;;;;23.39;39.78;98649.27;113656;1199;64439;-80
2021/04/01 10:48:53;;;;;;;20.17;12.87;;;;;;;23.41;38.69;98647.20;113587;1200;64416;-80
2021/04/01 10:51:23;;;;;;;17.83;12.27;;;;;;;23.27;37.40;98639.92;113592;1199;64554;-81
2021/04/01 10:53:51;;;;;;;17.60;12.10;;;;;;;23.32;38.49;98637.47;113673;1200;64359;-81
2021/04/01 10:56:20;;;;;;;17.43;12.63;;;;;;;23.49;39.20;98624.47;113642;1200;64404;-81
2021/04/01 10:59:02;;;;;;;20.00;12.40;;;;;;;23.66;37.59;98619.59;113606;1199;64391;-81
2021/04/01 11:01:45;;;;;;;19.70;13.05;;;;;;;23.85;38.08;98610.77;113569;1200;64404;-81
2021/04/01 11:04:29;;;;;;;17.50;10.80;;;;;;;24.10;38.10;98604.91;113569;1199;64458;-81
2021/04/01 11:07:05;;;;;;;16.10;11.70;;;;;;;24.30;38.10;98610.45;113628;1200;64969;-81
2021/04/01 11:09:35;;;;;;;17.93;13.27;;;;;;;24.50;37.91;98603.27;113579;1199;64388;-81
2021/04/01 11:12:18;;;;;;;14.45;10.70;;;;;;;24.66;37.38;98604.81;113615;1199;64374;-81
2021/04/01 11:15:36;;;;;;;15.23;10.97;;;;;;;24.72;36.67;98600.44;113604;1199;64417;-80
2021/04/01 11:18:15;;;;;;;18.33;11.97;;;;;;;24.77;35.70;98599.83;113657;1200;64430;-80
2021/04/01 11:20:45;;;;;;;20.20;11.70;;;;;;;24.78;35.06;98598.77;113634;1199;64304;-80
2021/04/01 11:23:19;;;;;;;29.60;12.40;;;;;;;24.84;35.18;98590.64;113666;1200;64339;-81
2021/04/01 11:25:59;;;;;;;16.80;12.07;;;;;;;24.84;35.30;98596.09;113633;1199;64352;-80
2021/04/01 11:28:57;;;;;;;12.07;9.50;;;;;;;24.94;34.73;98593.81;113687;1200;64586;-81
2021/04/01 11:31:29;;;;;;;33.15;12.60;;;;;;;24.95;34.45;98584.58;113634;1200;64490;-80
2021/04/01 11:33:59;;;;;;;14.25;10.20;;;;;;;24.87;33.22;98583.94;113691;1200;64375;-80
2021/04/01 11:36:32;;;;;;;16.15;10.65;;;;;;;24.72;34.57;98586.81;113688;1200;64413;-81
2021/04/01 11:39:03;;;;;;;14.07;10.40;;;;;;;24.67;33.43;98586.58;113661;1199;64468;-80
2021/04/01 11:41:33;;;;;;;17.33;10.87;;;;;;;24.51;33.88;98588.63;113692;1199;64321;-80
2021/04/01 11:44:04;;;;;;;13.90;10.75;;;;;;;24.45;34.17;98578.52;113654;1200;64391;-81
2021/04/01 11:46:37;;;;;;;12.83;9.70;;;;;;;24.41;34.12;98562.74;113618;1199;64403;-81
2021/04/01 11:49:34;;;;;;;15.70;10.45;;;;;;;24.38;34.16;98577.64;113714;1200;63358;-81
2021/04/01 11:52:03;;;;;;;19.33;11.93;;;;;;;24.30;33.08;98575.05;113749;1200;64445;-81
2021/04/01 11:54:38;;;;;;;13.60;10.03;;;;;;;24.25;32.47;98563.91;113651;1200;64401;-81
2021/04/01 11:57:32;;;;;;;15.15;10.05;;;;;;;24.25;33.32;98563.91;113664;1200;64337;-81
2021/04/01 12:00:12;;;;;;;11.65;9.15;;;;;;;24.34;34.10;98557.28;113628;1199;64382;-80
2021/04/01 12:03:04;;;;;;;16.53;10.63;;;;;;;24.35;31.94;98560.84;113668;1200;64413;-81
2021/04/01 12:05:39;;;;;;;15.73;11.90;;;;;;;24.33;33.51;98569.23;113370;1200;64467;-81
2021/04/01 12:08:07;;;;;;;16.77;11.20;;;;;;;24.25;32.60;98563.91;113663;1199;64499;-81
2021/04/01 12:11:17;;;;;;;12.77;11.37;;;;;;;24.19;32.75;98557.39;113660;1198;64449;-81
2021/04/01 12:13:48;;;;;;;13.90;10.67;;;;;;;24.27;33.55;98556.39;113720;1200;64333;-81
2021/04/01 12:16:23;;;;;;;12.77;9.57;;;;;;;24.34;31.95;98545.55;113708;1200;64475;-83
2021/04/01 12:18:52;;;;;;;17.85;10.35;;;;;;;24.27;31.85;98550.95;113495;1199;64449;-82
2021/04/01 12:21:21;;;;;;;15.17;11.50;;;;;;;24.22;31.14;98547.98;113756;1200;64506;-81
2021/04/01 12:23:57;;;;;;;14.40;11.33;;;;;;;24.13;30.68;98554.66;113718;1199;64551;-81
2021/04/01 12:26:29;;;;;;;18.77;12.23;;;;;;;24.07;30.01;98559.02;113681;1200;64471;-82
2021/04/01 12:28:59;;;;;;;43.00;15.20;;;;;;;23.98;30.74;98552.88;113663;1200;64404;-81
2021/04/01 12:31:37;;;;;;;;;;;;;;;23.94;29.71;98554.33;113736;1206;64327;-81
2021/04/01 12:34:12;;;;;;;14.85;11.80;;;;;;;23.94;30.43;98550.77;113695;1199;64426;-81
2021/04/01 12:36:42;;;;;;;20.43;12.10;;;;;;;23.93;30.61;98551.80;113671;1199;64415;-81
2021/04/01 12:39:14;;;;;;;16.10;12.20;;;;;;;23.91;30.99;98551.14;113591;1199;64346;-82
2021/04/01 12:41:45;;;;;;;19.30;14.70;;;;;;;23.88;31.06;98558.69;113626;1200;64372;-82
2021/04/01 12:44:12;;;;;;;17.70;14.55;;;;;;;23.74;29.23;98543.30;113668;1200;64369;-81
2021/04/01 12:46:45;;;;;;;17.30;14.17;;;;;;;23.65;29.97;98541.74;113621;1199;64308;-81
2021/04/01 12:49:16;;;;;;;18.80;14.93;;;;;;;23.53;29.71;98538.70;113648;1199;64430;-82
2021/04/01 12:51:49;;;;;;;20.27;14.07;;;;;;;23.44;30.21;98535.30;113582;1200;64423;-82
2021/04/01 12:54:26;;;;;;;22.43;14.57;;;;;;;23.34;29.87;98548.38;113705;1199;64410;-81
2021/04/01 12:56:58;;;;;;;22.17;15.10;;;;;;;23.23;30.46;98538.04;113668;1199;64423;-81
2021/04/01 12:59:43;;;;;;;19.97;14.50;;;;;;;23.23;30.70;98536.16;113632;1200;64369;-81
2021/04/01 13:02:20;;;;;;;18.95;14.15;;;;;;;23.19;30.96;98526.70;113657;1199;64499;-82
2021/04/01 13:07:26;;;;;;;19.93;13.90;;;;;;;23.21;30.42;98534.67;113629;1199;64356;-82
2021/04/01 13:10:47;;;;;;;20.45;14.55;;;;;;;23.19;29.88;98536.73;113617;1200;64315;-82
2021/04/01 13:13:15;;;;;;;22.67;14.10;;;;;;;23.15;29.96;98540.89;113675;1200;64512;-82
2021/04/01 13:15:44;;;;;;;18.13;13.30;;;;;;;23.09;29.42;98538.94;113566;1199;64410;-83
2021/04/01 13:18:17;;;;;;;19.23;14.77;;;;;;;23.09;29.48;98541.66;113661;1199;64384;-82
2021/04/01 13:20:48;;;;;;;17.60;13.30;;;;;;;23.02;28.16;98541.60;113655;1200;64439;-82
2021/04/01 13:26:05;;;;;;;17.50;11.63;;;;;;;23.04;28.62;98542.26;113604;1200;64480;-80
2021/04/01 13:28:33;;;;;;;13.85;10.85;;;;;;;22.99;27.45;98533.84;113708;1200;64599;-82
2021/04/01 13:31:06;;;;;;;13.50;9.80;;;;;;;22.94;26.57;98528.95;113770;1199;64780;-81
2021/04/01 13:34:00;;;;;;;;;;;;;;;;;;;;;